Time;durP1;ratioP1;P1;durP2;ratioP2;P2;SDS_P1;SDS_P2;PMS_P1;PMS_P2;Temp;Humidity;BMP_temperature;BMP_pressure;BME280_temperature;BME280_humidity;BME280_pressure;Samples;Min_cycle;Max_cycle;Signal;HPM_P1;HPM_P2
2023/12/30 00:01:34;;;;;;;2.10;2.00;;;;;;;20.44;52.09;97328.56;4989720;28;20666;-27
2023/12/30 00:04:01;;;;;;;2.03;1.80;;;;;;;20.43;52.30;97326.84;4983128;28;20207;-26
2023/12/30 00:06:27;;;;;;;4.30;1.87;;;;;;;20.43;52.15;97329.41;4981449;28;20209;-26
2023/12/30 00:08:54;;;;;;;2.30;2.10;;;;;;;20.43;52.32;97329.41;4992490;28;20219;-29
2023/12/30 00:11:21;;;;;;;1.73;1.63;;;;;;;20.42;52.31;97322.53;4989677;28;20227;-26
2023/12/30 00:13:47;;;;;;;3.93;1.80;;;;;;;20.42;52.29;97323.41;4983826;28;20198;-28
2023/12/30 00:16:14;;;;;;;2.40;2.00;;;;;;;20.42;52.17;97308.09;4988747;28;20199;-27
2023/12/30 00:18:41;;;;;;;2.10;1.90;;;;;;;20.42;52.29;97317.44;4982793;28;20242;-27
2023/12/30 00:21:08;;;;;;;1.70;1.60;;;;;;;20.43;52.21;97314.09;4990562;28;20689;-26
2023/12/30 00:23:35;;;;;;;3.50;2.13;;;;;;;20.42;52.21;97312.34;4989960;28;20231;-26
2023/12/30 00:26:21;;;;;;;1.77;1.67;;;;;;;20.42;52.24;97313.22;4992323;28;20199;-27
2023/12/30 00:28:48;;;;;;;2.13;1.90;;;;;;;20.42;52.13;97320.00;4988552;28;20225;-26
2023/12/30 00:31:27;;;;;;;1.80;1.70;;;;;;;20.42;52.17;97315.75;4987369;28;20242;-31
2023/12/30 00:33:56;;;;;;;2.03;1.77;;;;;;;20.42;52.24;97320.00;4984141;28;20202;-26
2023/12/30 00:36:23;;;;;;;1.80;1.70;;;;;;;20.43;52.19;97326.84;4991786;28;20290;-26
2023/12/30 00:38:50;;;;;;;2.47;1.80;;;;;;;20.42;51.98;97327.66;4979812;28;20262;-27
2023/12/30 00:41:16;;;;;;;2.30;2.10;;;;;;;20.43;52.25;97324.31;4990195;28;20289;-27
2023/12/30 00:43:43;;;;;;;1.97;1.77;;;;;;;20.43;52.13;97324.31;4993642;28;20214;-26
2023/12/30 00:46:09;;;;;;;2.17;1.73;;;;;;;20.43;52.26;97334.50;4990121;28;20630;-28
2023/12/30 00:48:36;;;;;;;1.77;1.67;;;;;;;20.42;52.15;97331.09;4984775;28;20227;-27
2023/12/30 00:51:03;;;;;;;1.70;1.60;;;;;;;20.39;52.39;97323.34;4985932;28;20667;-26
2023/12/30 00:53:29;;;;;;;1.80;1.70;;;;;;;20.41;52.34;97324.25;4982525;28;20658;-28
2023/12/30 00:55:56;;;;;;;2.17;1.97;;;;;;;20.42;52.34;97325.97;4979153;28;20626;-32
2023/12/30 00:58:23;;;;;;;1.90;1.80;;;;;;;20.42;52.36;97328.53;4993637;28;20257;-28
2023/12/30 01:00:50;;;;;;;1.93;1.70;;;;;;;20.42;52.29;97325.09;4990110;28;20211;-26
2023/12/30 01:03:17;;;;;;;1.83;1.73;;;;;;;20.42;52.20;97336.19;4982214;28;20674;-26
2023/12/30 01:05:44;;;;;;;2.40;1.77;;;;;;;20.41;52.20;97339.56;4989573;28;20291;-35
2023/12/30 01:08:11;;;;;;;2.43;2.03;;;;;;;20.43;52.48;97350.66;4987403;28;20262;-30
2023/12/30 01:10:38;;;;;;;2.70;1.80;;;;;;;20.42;52.31;97353.19;4990480;28;20209;-26
2023/12/30 01:13:08;;;;;;;1.80;1.70;;;;;;;20.44;52.35;97356.66;4991860;28;20211;-26
2023/12/30 01:15:35;;;;;;;1.77;1.67;;;;;;;20.43;52.20;97349.81;4991507;28;20643;-26
2023/12/30 01:18:02;;;;;;;2.50;1.57;;;;;;;20.43;52.31;97355.78;4987882;28;20219;-26
2023/12/30 01:20:29;;;;;;;2.73;2.00;;;;;;;20.43;52.16;97349.81;4991121;28;20244;-29
2023/12/30 01:22:56;;;;;;;1.63;1.53;;;;;;;20.43;52.02;97360.88;4989111;28;20203;-27
2023/12/30 01:25:23;;;;;;;1.90;1.80;;;;;;;20.44;52.35;97359.22;4992413;28;20214;-26
2023/12/30 01:27:49;;;;;;;1.90;1.80;;;;;;;20.44;52.13;97360.09;4984172;28;20267;-26
2023/12/30 01:30:16;;;;;;;1.87;1.77;;;;;;;20.45;52.44;97354.16;4982893;28;20266;-26
2023/12/30 01:32:44;;;;;;;1.97;1.77;;;;;;;20.44;52.27;97351.53;4993134;28;20203;-26
2023/12/30 01:35:11;;;;;;;1.77;1.67;;;;;;;20.43;52.38;97354.94;4988418;28;20199;-27
2023/12/30 01:37:37;;;;;;;2.57;1.73;;;;;;;20.43;52.28;97350.66;4985165;28;20858;-26
2023/12/30 01:40:04;;;;;;;1.80;1.70;;;;;;;20.44;52.06;97357.53;4992869;28;20202;-27
2023/12/30 01:42:31;;;;;;;1.50;1.40;;;;;;;20.43;52.27;97340.47;4991838;28;20199;-26
2023/12/30 01:44:58;;;;;;;2.13;1.80;;;;;;;20.44;52.31;97349.00;4992797;28;20203;-26
2023/12/30 01:47:24;;;;;;;1.90;1.70;;;;;;;20.44;51.94;97341.34;4986724;28;20595;-30
2023/12/30 01:49:51;;;;;;;2.17;1.83;;;;;;;20.44;52.22;97349.88;4984294;28;20261;-26
2023/12/30 01:52:17;;;;;;;1.87;1.70;;;;;;;20.44;52.13;97342.22;4990930;28;20209;-26
2023/12/30 01:54:44;;;;;;;1.60;1.50;;;;;;;20.45;52.18;97338.84;4975211;28;20211;-28
2023/12/30 01:57:11;;;;;;;1.80;1.70;;;;;;;20.41;52.14;97336.13;4982079;28;20216;-28
2023/12/30 01:59:37;;;;;;;1.60;1.50;;;;;;;20.44;52.23;97339.66;4974704;28;20199;-31
2023/12/30 02:02:04;;;;;;;1.70;1.60;;;;;;;20.45;52.26;97346.50;4984512;28;20211;-26
2023/12/30 02:04:31;;;;;;;1.83;1.73;;;;;;;20.46;52.38;97338.00;4983561;28;20206;-34
2023/12/30 02:06:57;;;;;;;1.80;1.70;;;;;;;20.44;52.18;97344.78;4991967;28;20215;-28
2023/12/30 02:09:24;;;;;;;1.90;1.80;;;;;;;20.46;52.14;97347.38;4980933;28;20208;-26
2023/12/30 02:11:50;;;;;;;1.60;1.50;;;;;;;20.46;52.08;97347.38;4983691;28;20249;-31
2023/12/30 02:14:24;;;;;;;1.87;1.77;;;;;;;20.46;52.12;97340.56;4977578;28;20211;-27
2023/12/30 02:16:51;;;;;;;1.67;1.57;;;;;;;20.47;52.59;97346.53;4988583;28;20250;-33
2023/12/30 02:19:18;;;;;;;1.70;1.60;;;;;;;20.46;52.31;97342.25;4992809;28;20199;-28
2023/12/30 02:21:44;;;;;;;1.90;1.70;;;;;;;20.45;52.29;97343.94;4989453;28;20709;-27
2023/12/30 02:24:11;;;;;;;2.00;1.80;;;;;;;20.45;52.14;97348.16;4993816;28;20211;-27
2023/12/30 02:26:39;;;;;;;1.90;1.70;;;;;;;20.45;52.12;97343.06;4996473;28;20205;-26
2023/12/30 02:29:09;;;;;;;1.77;1.67;;;;;;;20.46;52.24;97349.91;4994145;28;20758;-27
2023/12/30 02:31:37;;;;;;;1.90;1.80;;;;;;;20.45;52.27;97355.81;4992015;28;20206;-29
2023/12/30 02:34:03;;;;;;;1.67;1.50;;;;;;;20.45;52.12;97351.59;4994455;28;20563;-26
2023/12/30 02:36:30;;;;;;;2.93;1.57;;;;;;;20.44;52.29;97351.53;4995235;28;20563;-28
2023/12/30 02:38:57;;;;;;;2.20;1.63;;;;;;;20.46;52.19;97357.56;4994613;28;20214;-30
2023/12/30 02:41:23;;;;;;;1.70;1.60;;;;;;;20.46;52.09;97360.13;4995847;28;20203;-27
2023/12/30 02:43:57;;;;;;;1.53;1.43;;;;;;;20.46;52.20;97362.69;4989282;28;20235;-26
2023/12/30 02:46:24;;;;;;;1.70;1.60;;;;;;;20.46;51.95;97363.53;4980926;28;20202;-26
2023/12/30 02:48:50;;;;;;;1.90;1.80;;;;;;;20.47;52.20;97364.41;4992600;28;20317;-28
2023/12/30 02:51:17;;;;;;;1.60;1.50;;;;;;;20.47;52.20;97364.41;4991169;28;20223;-30
2023/12/30 02:53:44;;;;;;;1.70;1.60;;;;;;;20.46;51.90;97363.53;4991654;28;20199;-26
2023/12/30 02:56:18;;;;;;;1.93;1.83;;;;;;;20.46;52.24;97371.19;4993318;28;20262;-30
2023/12/30 02:58:56;;;;;;;1.70;1.60;;;;;;;20.47;52.26;97369.50;4990990;28;20230;-27
2023/12/30 03:01:27;;;;;;;1.70;1.60;;;;;;;20.47;52.17;97378.03;4988126;28;20294;-29
2023/12/30 03:03:55;;;;;;;1.70;1.60;;;;;;;20.46;52.28;97376.28;4995170;28;20209;-26
2023/12/30 03:06:22;;;;;;;1.97;1.80;;;;;;;20.44;52.19;97379.63;4988957;28;20242;-26
2023/12/30 03:08:49;;;;;;;1.80;1.70;;;;;;;20.46;52.09;97381.41;4995843;28;20227;-28
2023/12/30 03:11:16;;;;;;;1.60;1.50;;;;;;;20.46;52.25;97380.56;4995506;28;20202;-26
2023/12/30 03:13:42;;;;;;;1.80;1.70;;;;;;;20.45;52.31;97382.22;4995696;28;20658;-26
2023/12/30 03:16:11;;;;;;;1.60;1.50;;;;;;;20.46;52.14;97380.56;4991020;28;20312;-29
2023/12/30 03:18:38;;;;;;;1.50;1.40;;;;;;;20.44;52.12;97377.06;4989737;28;20255;-27
2023/12/30 03:21:08;;;;;;;1.70;1.60;;;;;;;20.46;52.00;97380.56;4993457;28;20203;-26
2023/12/30 03:23:36;;;;;;;1.77;1.67;;;;;;;20.47;52.14;97382.28;4988011;28;20195;-26
2023/12/30 03:26:03;;;;;;;1.50;1.40;;;;;;;20.47;52.19;97382.28;4982126;28;20201;-26
2023/12/30 03:28:30;;;;;;;1.43;1.33;;;;;;;20.45;52.18;97382.22;4995389;28;20254;-31
2023/12/30 03:30:56;;;;;;;2.93;1.80;;;;;;;20.46;51.98;97383.94;4995134;28;20296;-26
2023/12/30 03:33:24;;;;;;;1.53;1.43;;;;;;;20.45;52.11;97382.22;4995049;28;20202;-26
2023/12/30 03:35:50;;;;;;;1.50;1.40;;;;;;;20.47;52.12;97384.81;4995508;28;20254;-26
2023/12/30 03:38:17;;;;;;;1.37;1.30;;;;;;;20.46;52.10;97381.41;4993487;28;20273;-26
2023/12/30 03:40:44;;;;;;;1.60;1.50;;;;;;;20.46;52.55;97385.66;4995100;28;20650;-26
2023/12/30 03:43:10;;;;;;;1.40;1.30;;;;;;;20.47;52.16;97384.81;4992167;28;20246;-27
2023/12/30 03:45:37;;;;;;;1.70;1.60;;;;;;;20.48;52.16;97381.44;4986452;28;20629;-26
2023/12/30 03:48:04;;;;;;;1.50;1.40;;;;;;;20.47;52.39;97392.47;4989690;28;20223;-26
2023/12/30 03:50:31;;;;;;;1.60;1.50;;;;;;;20.47;52.19;97388.25;4981619;28;20214;-38
2023/12/30 03:52:57;;;;;;;1.50;1.40;;;;;;;20.46;52.14;97389.06;4989104;28;20255;-29
2023/12/30 03:55:24;;;;;;;1.57;1.47;;;;;;;20.47;52.24;97382.28;4989462;28;20205;-26
2023/12/30 03:57:52;;;;;;;1.50;1.40;;;;;;;20.45;52.17;97382.22;4992656;28;20218;-26
2023/12/30 04:00:20;;;;;;;1.40;1.30;;;;;;;20.46;51.88;97389.06;4983679;28;20234;-28
2023/12/30 04:02:47;;;;;;;1.33;1.30;;;;;;;20.46;52.09;97380.56;4987024;28;20290;-28
2023/12/30 04:05:13;;;;;;;1.73;1.57;;;;;;;20.47;52.02;97388.25;4993653;28;20199;-27
2023/12/30 04:07:40;;;;;;;1.60;1.50;;;;;;;20.47;51.96;97389.94;4991599;28;20262;-26
2023/12/30 04:10:07;;;;;;;1.87;1.77;;;;;;;20.46;52.21;97389.06;4984256;28;20210;-26
2023/12/30 04:12:35;;;;;;;1.50;1.37;;;;;;;20.47;52.10;97389.94;4987282;28;20222;-27
2023/12/30 04:15:02;;;;;;;1.50;1.40;;;;;;;20.47;52.00;97388.25;4994003;28;20330;-27
2023/12/30 04:17:29;;;;;;;1.50;1.40;;;;;;;20.47;51.98;97389.94;4990593;28;20326;-26
2023/12/30 04:19:55;;;;;;;1.70;1.60;;;;;;;20.48;52.36;97387.44;4991016;28;20195;-29
2023/12/30 04:22:24;;;;;;;1.63;1.53;;;;;;;20.48;52.14;97392.53;4985197;28;20712;-27
2023/12/30 04:24:51;;;;;;;1.70;1.60;;;;;;;20.47;52.04;97388.25;4993869;28;20227;-26
2023/12/30 04:27:19;;;;;;;1.50;1.40;;;;;;;20.48;52.16;97394.22;4991986;28;20235;-26
2023/12/30 04:29:46;;;;;;;1.97;1.70;;;;;;;20.47;52.09;97390.81;4986640;28;20224;-28
2023/12/30 04:32:13;;;;;;;1.40;1.30;;;;;;;20.45;51.84;97387.34;4983186;28;20569;-28
2023/12/30 04:34:39;;;;;;;1.70;1.60;;;;;;;20.48;52.04;97399.31;4994140;28;20199;-26
2023/12/30 04:37:06;;;;;;;1.70;1.60;;;;;;;20.47;52.11;97393.38;4985556;28;20223;-26
2023/12/30 04:39:33;;;;;;;2.00;1.80;;;;;;;20.47;51.86;97403.56;4993792;28;20199;-30
2023/12/30 04:41:59;;;;;;;1.47;1.37;;;;;;;20.40;52.09;97393.97;4993627;28;20636;-26
2023/12/30 04:44:26;;;;;;;1.50;1.40;;;;;;;20.47;52.01;97402.69;4992460;28;20646;-27
2023/12/30 04:46:52;;;;;;;1.50;1.40;;;;;;;20.47;51.98;97413.78;4983788;28;20215;-26
2023/12/30 04:49:19;;;;;;;1.53;1.43;;;;;;;20.48;51.88;97414.63;4989797;28;20313;-26
2023/12/30 04:51:46;;;;;;;1.50;1.40;;;;;;;20.48;52.00;97418.06;4979916;28;20202;-28
2023/12/30 04:54:12;;;;;;;1.30;1.20;;;;;;;20.48;51.94;97414.63;4982058;28;20615;-26
2023/12/30 04:56:39;;;;;;;1.50;1.40;;;;;;;20.47;52.08;97411.22;4987098;28;20202;-26
2023/12/30 04:59:06;;;;;;;1.30;1.30;;;;;;;20.41;52.01;97405.94;4989737;28;20677;-27
2023/12/30 05:01:32;;;;;;;1.50;1.40;;;;;;;20.48;52.01;97417.19;4993920;28;20203;-27
2023/12/30 05:03:59;;;;;;;1.50;1.40;;;;;;;20.48;52.01;97419.75;4980586;28;20199;-26
2023/12/30 05:06:26;;;;;;;1.60;1.50;;;;;;;20.48;52.04;97427.41;4991105;28;20203;-30
2023/12/30 05:08:53;;;;;;;1.43;1.33;;;;;;;20.43;52.14;97409.38;4982532;28;20224;-29
2023/12/30 05:11:20;;;;;;;1.67;1.57;;;;;;;20.47;52.07;97418.88;4992312;28;20207;-26
2023/12/30 05:13:46;;;;;;;1.57;1.47;;;;;;;20.47;52.32;97411.22;4992298;28;20206;-29
2023/12/30 05:16:13;;;;;;;1.50;1.40;;;;;;;20.47;52.30;97416.34;4990042;28;20195;-27
2023/12/30 05:18:40;;;;;;;1.63;1.53;;;;;;;20.47;51.86;97412.91;4976760;28;20769;-27
2023/12/30 05:21:15;;;;;;;1.40;1.30;;;;;;;20.48;52.23;97412.97;4986274;28;20206;-28
2023/12/30 05:23:42;;;;;;;1.50;1.40;;;;;;;20.43;52.02;97405.97;4989089;28;20199;-26
2023/12/30 05:26:12;;;;;;;1.50;1.40;;;;;;;20.43;52.25;97414.47;4992323;28;20203;-28
2023/12/30 05:28:38;;;;;;;1.53;1.43;;;;;;;20.47;52.03;97421.44;4965060;28;20679;-26
2023/12/30 05:31:06;;;;;;;1.53;1.43;;;;;;;20.48;52.16;97430.81;4988681;28;20294;-30
2023/12/30 05:33:32;;;;;;;1.50;1.40;;;;;;;20.49;52.05;97439.38;4985733;28;20404;-26
2023/12/30 05:35:59;;;;;;;1.60;1.50;;;;;;;20.48;52.16;97440.16;4978849;28;20200;-27
2023/12/30 05:38:26;;;;;;;1.70;1.60;;;;;;;20.40;51.96;97432.25;4981387;28;20648;-26
2023/12/30 05:40:52;;;;;;;1.60;1.50;;;;;;;20.50;52.32;97451.28;4986276;28;20199;-26
2023/12/30 05:43:19;;;;;;;1.50;1.40;;;;;;;20.49;52.01;97458.06;4984589;28;20228;-26
2023/12/30 05:45:45;;;;;;;1.30;1.30;;;;;;;20.50;51.98;97453.84;4988104;28;20267;-28
2023/12/30 05:48:13;;;;;;;1.37;1.30;;;;;;;20.49;52.17;97462.34;4979876;28;20266;-26
2023/12/30 05:50:40;;;;;;;1.27;1.20;;;;;;;20.49;51.98;97458.06;4988171;28;20203;-28
2023/12/30 05:53:06;;;;;;;1.40;1.30;;;;;;;20.49;52.26;97464.88;4982345;28;20655;-26
2023/12/30 05:55:33;;;;;;;1.33;1.23;;;;;;;20.50;52.15;97469.16;4985214;28;20258;-26
2023/12/30 05:57:59;;;;;;;1.23;1.23;;;;;;;20.50;52.02;97471.72;4981455;28;20218;-26
2023/12/30 06:00:26;;;;;;;1.60;1.50;;;;;;;20.50;51.83;97466.63;4994857;28;20622;-28
2023/12/30 06:02:53;;;;;;;1.40;1.30;;;;;;;20.50;51.97;97480.25;4991324;28;20254;-26
2023/12/30 06:05:19;;;;;;;1.60;1.50;;;;;;;20.49;52.23;97481.06;4994286;28;20210;-27
2023/12/30 06:07:46;;;;;;;1.50;1.40;;;;;;;20.50;52.08;97477.69;4996470;28;20242;-26
2023/12/30 06:10:13;;;;;;;1.50;1.40;;;;;;;20.50;52.19;97476.81;4996749;28;20249;-27
2023/12/30 06:12:40;;;;;;;1.40;1.30;;;;;;;20.46;52.25;97480.09;4991406;28;20632;-26
2023/12/30 06:15:07;;;;;;;1.67;1.57;;;;;;;20.50;52.00;97485.38;4990744;28;20199;-28
2023/12/30 06:17:33;;;;;;;1.40;1.30;;;;;;;20.50;52.08;97482.81;4984345;28;20729;-26
2023/12/30 06:20:00;;;;;;;1.57;1.20;;;;;;;20.51;52.26;97488.75;4987311;28;20701;-26
2023/12/30 06:22:27;;;;;;;1.20;1.20;;;;;;;20.49;51.85;97496.38;4989281;28;20580;-26
2023/12/30 06:24:54;;;;;;;1.20;1.20;;;;;;;20.50;51.95;97492.16;4993402;28;20199;-28
2023/12/30 06:29:50;;;;;;;1.60;1.50;;;;;;;20.49;51.91;97505.72;4993464;28;20222;-24
2023/12/30 06:32:16;;;;;;;1.40;1.30;;;;;;;20.49;52.21;97500.63;4994215;28;20651;-23
2023/12/30 06:34:43;;;;;;;1.20;1.20;;;;;;;20.48;52.18;97499.75;4995053;28;20265;-23
2023/12/30 06:37:10;;;;;;;1.20;1.20;;;;;;;20.48;51.99;97488.66;4993433;28;20210;-24
2023/12/30 06:39:36;;;;;;;1.40;1.30;;;;;;;20.47;52.29;97490.38;4993324;28;20364;-24
2023/12/30 06:42:03;;;;;;;1.37;1.27;;;;;;;20.48;52.24;97483.56;4994708;28;20270;-23
2023/12/30 06:44:30;;;;;;;1.40;1.30;;;;;;;20.48;52.17;97483.56;4981970;28;20212;-24
2023/12/30 06:46:56;;;;;;;1.50;1.40;;;;;;;20.48;52.23;97494.66;4985364;28;20336;-24
2023/12/30 06:49:24;;;;;;;1.30;1.20;;;;;;;20.47;52.07;97495.47;4994416;28;20274;-24
2023/12/30 06:51:50;;;;;;;1.40;1.30;;;;;;;20.47;52.23;97515.91;4994666;28;20207;-23
2023/12/30 06:54:17;;;;;;;1.20;1.10;;;;;;;20.47;52.24;97515.91;4995079;28;20226;-23
2023/12/30 06:56:44;;;;;;;1.33;1.23;;;;;;;20.47;52.13;97515.03;4987958;28;20235;-24
2023/12/30 06:59:12;;;;;;;1.30;1.20;;;;;;;20.47;52.20;97518.44;4986382;28;20269;-23
2023/12/30 07:01:41;;;;;;;1.40;1.30;;;;;;;20.47;52.16;97518.44;4994360;28;20665;-24
2023/12/30 07:04:08;;;;;;;1.43;1.37;;;;;;;20.47;52.17;97521.00;4994184;28;20203;-23
2023/12/30 07:06:34;;;;;;;1.20;1.20;;;;;;;20.48;52.10;97524.41;4993640;28;20343;-23
2023/12/30 07:09:01;;;;;;;1.27;1.20;;;;;;;20.47;52.20;97521.00;4994239;28;20234;-23
2023/12/30 07:11:29;;;;;;;1.23;1.20;;;;;;;20.48;52.28;97521.84;4990121;28;20661;-24
2023/12/30 07:13:55;;;;;;;1.10;1.10;;;;;;;20.48;51.90;97524.41;4989053;28;20210;-24
2023/12/30 07:16:22;;;;;;;1.60;1.50;;;;;;;20.48;51.92;97529.50;4987885;28;20204;-23
2023/12/30 07:18:48;;;;;;;1.23;1.20;;;;;;;20.48;52.16;97537.16;4981003;28;20219;-24
2023/12/30 07:21:15;;;;;;;1.13;1.13;;;;;;;20.48;51.91;97539.72;4994376;28;20207;-23
2023/12/30 07:23:43;;;;;;;1.43;1.33;;;;;;;20.48;52.11;97547.38;4990196;28;20294;-23
2023/12/30 07:26:09;;;;;;;1.50;1.40;;;;;;;20.49;52.05;97538.91;4992321;28;20253;-24
2023/12/30 07:28:36;;;;;;;1.20;1.20;;;;;;;20.49;51.89;97544.03;4993429;28;20226;-24
2023/12/30 07:31:03;;;;;;;1.10;1.10;;;;;;;20.50;52.01;97548.31;4991301;28;20577;-24
2023/12/30 07:33:30;;;;;;;1.40;1.30;;;;;;;20.51;51.91;97552.59;4991152;28;20298;-23
2023/12/30 07:35:57;;;;;;;1.30;1.20;;;;;;;20.52;52.07;97550.09;4990820;28;20204;-23
2023/12/30 07:38:23;;;;;;;1.57;1.47;;;;;;;20.53;51.84;97554.41;4992851;28;20231;-23
2023/12/30 07:40:50;;;;;;;1.30;1.20;;;;;;;20.53;52.03;97556.94;4986497;28;20246;-23
2023/12/30 07:43:16;;;;;;;1.27;1.27;;;;;;;20.53;52.09;97564.59;4994016;28;20266;-24
2023/12/30 07:45:43;;;;;;;1.30;1.20;;;;;;;20.53;52.05;97566.28;4989705;28;20299;-24
2023/12/30 07:48:10;;;;;;;1.23;1.23;;;;;;;20.53;52.11;97571.38;4991797;28;20226;-24
2023/12/30 07:50:37;;;;;;;1.83;1.30;;;;;;;20.53;51.95;97569.72;4985845;28;20223;-23
2023/12/30 07:53:03;;;;;;;1.40;1.30;;;;;;;20.56;51.88;97571.50;4993328;28;20589;-24
2023/12/30 07:55:31;;;;;;;1.50;1.40;;;;;;;20.57;52.11;97578.34;4992519;28;20210;-23
2023/12/30 07:57:58;;;;;;;1.33;1.23;;;;;;;20.57;51.83;97578.34;4986679;28;20231;-23
2023/12/30 08:00:25;;;;;;;1.30;1.20;;;;;;;20.56;52.06;97580.03;4991185;28;20265;-22
2023/12/30 08:02:52;;;;;;;1.73;1.30;;;;;;;20.57;51.99;97578.34;4989277;28;20207;-23
2023/12/30 08:05:19;;;;;;;1.40;1.30;;;;;;;20.57;51.94;97583.47;4985518;28;20249;-24
2023/12/30 08:07:45;;;;;;;1.17;1.13;;;;;;;20.55;52.01;97585.97;4987124;28;20907;-24
2023/12/30 08:10:12;;;;;;;1.50;1.40;;;;;;;20.55;51.69;97580.84;4993287;28;20706;-24
2023/12/30 08:12:39;;;;;;;1.30;1.30;;;;;;;20.55;51.75;97575.75;4992047;28;20245;-24
2023/12/30 08:15:08;;;;;;;1.30;1.30;;;;;;;20.54;51.91;97578.25;4984788;28;20210;-25
2023/12/30 08:17:34;;;;;;;1.53;1.33;;;;;;;20.54;51.95;97568.03;4984614;28;20230;-24
2023/12/30 08:20:02;;;;;;;1.10;1.10;;;;;;;20.53;52.10;97571.38;4991396;28;20202;-23
2023/12/30 08:22:29;;;;;;;1.10;1.10;;;;;;;20.52;51.78;97587.53;4992007;28;20681;-22
2023/12/30 08:24:56;;;;;;;1.10;1.10;;;;;;;20.51;51.57;97576.44;4992993;28;20205;-22
2023/12/30 08:27:22;;;;;;;1.20;1.20;;;;;;;20.50;51.72;97576.38;4988068;28;20208;-25
2023/12/30 08:29:49;;;;;;;1.40;1.30;;;;;;;20.50;52.01;97586.59;4992645;28;20303;-24
2023/12/30 08:32:15;;;;;;;1.40;1.30;;;;;;;20.48;51.07;97584.00;4991807;28;20241;-24
2023/12/30 08:34:42;;;;;;;1.40;1.30;;;;;;;20.46;51.29;97583.06;4992899;28;20290;-24
2023/12/30 08:37:09;;;;;;;1.40;1.30;;;;;;;20.44;51.48;97581.28;4992814;28;20286;-24
2023/12/30 08:39:37;;;;;;;1.70;1.27;;;;;;;20.41;51.35;97579.50;4986372;28;20223;-24
2023/12/30 08:42:06;;;;;;;1.53;1.40;;;;;;;20.34;51.31;97571.59;4989859;28;20211;-24
2023/12/30 08:44:37;;;;;;;1.60;1.50;;;;;;;20.37;51.12;97587.84;4992398;28;20600;-24
2023/12/30 08:47:04;;;;;;;1.60;1.50;;;;;;;20.35;51.18;97593.72;4991138;28;20214;-23
2023/12/30 08:49:31;;;;;;;1.70;1.50;;;;;;;20.33;50.84;97596.22;4987969;28;20218;-22
2023/12/30 08:51:58;;;;;;;2.13;1.90;;;;;;;20.32;50.99;97597.06;4991545;28;20209;-24
2023/12/30 08:54:25;;;;;;;1.90;1.70;;;;;;;20.30;50.62;97598.66;4985623;28;20208;-23
2023/12/30 08:56:53;;;;;;;2.00;1.80;;;;;;;20.30;50.65;97602.91;4991649;28;20297;-23
2023/12/30 08:59:21;;;;;;;2.23;1.73;;;;;;;20.30;50.71;97611.44;4988069;28;20310;-24
2023/12/30 09:01:48;;;;;;;1.77;1.63;;;;;;;20.30;50.84;97611.44;4992555;28;20290;-23
2023/12/30 09:04:15;;;;;;;4.67;1.80;;;;;;;20.29;50.84;97609.72;4989831;28;20203;-23
2023/12/30 09:06:42;;;;;;;2.30;2.10;;;;;;;20.30;51.09;97613.09;4989978;28;20206;-23
2023/12/30 09:09:08;;;;;;;2.77;2.20;;;;;;;20.30;50.57;97610.56;4986334;28;20222;-22
2023/12/30 09:11:38;;;;;;;4.17;2.17;;;;;;;20.32;50.66;97616.59;4988201;28;20249;-23
2023/12/30 09:14:05;;;;;;;2.30;1.90;;;;;;;20.33;50.73;97614.09;4986535;28;20223;-23
2023/12/30 09:16:35;;;;;;;2.40;2.10;;;;;;;20.33;50.83;97614.09;4983705;28;20202;-22
2023/12/30 09:19:02;;;;;;;4.07;2.30;;;;;;;20.36;50.97;97615.88;4985128;28;20238;-24
2023/12/30 09:21:29;;;;;;;2.97;1.93;;;;;;;20.36;51.10;97608.22;4990427;28;20210;-24
2023/12/30 09:23:57;;;;;;;3.83;2.27;;;;;;;20.36;51.26;97608.22;4978724;28;20316;-23
2023/12/30 09:26:24;;;;;;;3.30;2.00;;;;;;;20.36;50.94;97609.09;4985158;28;20199;-23
2023/12/30 09:28:50;;;;;;;3.20;2.30;;;;;;;20.37;50.77;97609.97;4984351;28;20284;-24
2023/12/30 09:31:20;;;;;;;2.00;1.70;;;;;;;20.37;51.08;97602.31;4990509;28;20223;-24
2023/12/30 09:33:48;;;;;;;6.37;2.10;;;;;;;20.37;51.01;97615.94;4987260;28;20281;-23
2023/12/30 09:36:17;;;;;;;2.00;1.80;;;;;;;20.37;50.96;97615.94;4985078;28;20733;-24
2023/12/30 09:38:44;;;;;;;3.30;2.13;;;;;;;20.37;50.83;97604.88;4979846;28;20231;-24
2023/12/30 09:41:12;;;;;;;2.63;1.97;;;;;;;20.37;50.77;97609.97;4983197;28;20227;-23
2023/12/30 09:43:39;;;;;;;3.27;2.10;;;;;;;20.34;51.55;97597.09;4985286;28;20203;-22
2023/12/30 09:46:06;;;;;;;3.47;2.07;;;;;;;20.37;51.04;97612.53;4990722;28;20242;-22
2023/12/30 09:48:32;;;;;;;2.40;1.93;;;;;;;20.36;50.81;97615.88;4970208;28;20585;-24
2023/12/30 09:50:59;;;;;;;3.07;1.87;;;;;;;20.35;51.07;97615.03;4988022;28;20310;-23
2023/12/30 09:53:26;;;;;;;8.13;2.53;;;;;;;20.35;51.06;97612.47;4980694;28;20204;-23
2023/12/30 09:55:53;;;;;;;2.40;1.90;;;;;;;20.37;50.98;97609.97;4988324;28;21013;-24
2023/12/30 09:58:21;;;;;;;2.70;1.80;;;;;;;20.37;50.97;97599.78;4990184;28;20226;-23
2023/12/30 10:00:47;;;;;;;2.83;2.00;;;;;;;20.38;50.72;97607.47;4987004;28;20795;-22
2023/12/30 10:03:15;;;;;;;1.90;1.80;;;;;;;20.38;51.08;97604.94;4988168;28;20203;-23
2023/12/30 10:05:41;;;;;;;3.67;1.90;;;;;;;20.38;50.97;97610.03;4991186;28;20211;-24
2023/12/30 10:08:08;;;;;;;1.93;1.70;;;;;;;20.34;51.09;97589.44;4987508;28;20700;-24
2023/12/30 10:10:35;;;;;;;2.23;1.93;;;;;;;20.38;51.07;97591.28;4990256;28;20793;-24
2023/12/30 10:13:01;;;;;;;2.53;1.83;;;;;;;20.39;51.06;97588.78;4984857;28;20258;-23
2023/12/30 10:15:28;;;;;;;3.10;1.97;;;;;;;20.39;50.97;97585.34;4991760;28;20724;-24
2023/12/30 10:17:55;;;;;;;3.93;2.10;;;;;;;20.38;50.91;97591.28;4990314;28;20733;-23
2023/12/30 10:20:23;;;;;;;2.60;1.90;;;;;;;20.39;51.11;97587.91;4979113;28;20210;-23
2023/12/30 10:22:50;;;;;;;4.70;2.23;;;;;;;20.38;50.89;97579.41;4989582;28;20213;-23
2023/12/30 10:25:17;;;;;;;3.47;1.90;;;;;;;20.37;50.73;97582.75;4984274;28;20210;-22
2023/12/30 10:27:47;;;;;;;1.93;1.73;;;;;;;20.39;51.07;97570.03;4991505;28;20664;-23
2023/12/30 10:30:19;;;;;;;1.77;1.50;;;;;;;20.39;51.11;97565.81;4983578;28;20697;-24
2023/12/30 10:32:46;;;;;;;2.60;2.00;;;;;;;20.39;51.04;97564.94;4991588;28;20242;-24
2023/12/30 10:35:13;;;;;;;3.30;1.77;;;;;;;20.40;50.97;97566.69;4978964;28;20269;-23
2023/12/30 10:37:42;;;;;;;4.17;2.00;;;;;;;20.40;50.99;97562.44;4991445;28;20250;-24
2023/12/30 10:40:09;;;;;;;1.83;1.53;;;;;;;20.40;50.91;97559.88;4979665;28;20195;-24
2023/12/30 10:42:39;;;;;;;1.63;1.53;;;;;;;20.41;51.00;97550.53;4977027;28;20204;-23
2023/12/30 10:45:06;;;;;;;2.43;2.00;;;;;;;20.43;51.04;97557.44;4982696;28;20203;-23
2023/12/30 10:47:35;;;;;;;2.37;1.90;;;;;;;20.40;51.01;97549.66;4987920;28;20225;-23
2023/12/30 10:50:04;;;;;;;3.47;2.20;;;;;;;20.42;51.43;97553.16;4991819;28;20489;-23
2023/12/30 10:52:31;;;;;;;2.70;1.80;;;;;;;20.43;51.13;97548.94;4986946;28;20588;-24
2023/12/30 10:55:08;;;;;;;2.17;1.60;;;;;;;20.42;51.11;97514.88;4988739;28;20199;-24
2023/12/30 10:57:36;;;;;;;2.73;1.70;;;;;;;20.46;51.10;97515.84;4994908;28;20229;-24
2023/12/30 11:00:09;;;;;;;3.10;1.60;;;;;;;20.49;50.88;97524.44;4992953;28;20204;-23
2023/12/30 11:02:36;;;;;;;2.50;1.77;;;;;;;20.47;51.25;97518.44;4994964;28;20211;-24
2023/12/30 11:05:08;;;;;;;5.30;1.90;;;;;;;20.51;51.48;97525.38;4991238;28;20285;-23
2023/12/30 11:07:35;;;;;;;5.00;2.10;;;;;;;20.52;51.43;97533.91;4999005;28;20269;-24
2023/12/30 11:10:17;;;;;;;7.33;1.80;;;;;;;20.49;51.32;97539.78;4977068;28;20306;-22
2023/12/30 11:12:44;;;;;;;4.00;2.10;;;;;;;20.49;51.48;97536.38;4991093;28;20195;-24
2023/12/30 11:15:28;;;;;;;6.23;2.23;;;;;;;20.49;51.56;97538.91;4985628;28;20282;-22
2023/12/30 11:17:56;;;;;;;2.77;1.97;;;;;;;20.48;51.38;97535.50;4991756;28;20226;-24
2023/12/30 11:20:28;;;;;;;5.47;2.10;;;;;;;20.49;51.15;97541.47;4977342;28;20242;-23
2023/12/30 11:22:59;;;;;;;8.23;2.37;;;;;;;20.48;51.45;97535.50;4986130;28;20207;-22
2023/12/30 11:25:36;;;;;;;5.63;1.90;;;;;;;20.48;51.20;97538.03;4987718;28;20203;-24
2023/12/30 11:28:20;;;;;;;3.60;2.10;;;;;;;20.49;51.45;97542.31;4983995;28;20242;-24
2023/12/30 11:30:55;;;;;;;12.20;2.50;;;;;;;20.48;51.65;97534.63;4986161;28;20223;-23
2023/12/30 11:33:22;;;;;;;3.73;1.90;;;;;;;20.48;51.33;97537.16;4991692;28;20211;-24
2023/12/30 11:35:54;;;;;;;7.90;2.20;;;;;;;20.48;51.47;97538.03;4985500;28;20211;-23
2023/12/30 11:38:20;;;;;;;4.57;2.07;;;;;;;20.48;51.45;97532.06;4989568;28;20249;-23